04V

Saguache Municipal Airport

Saguache, Colorado, USA
METAR K04V 181335Z AUTO 00000KT 2 1/2SM -SN SCT009 BKN015 OVC021 M04/M05 A2984 RMK AO2 VIS 2V4
Observed Flight Rules
Jan-18 @ 13:35 UTC (15 minutes ago) Instrument Flight Rules
Visibility Clouds Conditions
2 1/2 miles
  • Scattered at 900' AGL
  • Broken at 1,500' AGL
  • Overcast at 2,100' AGL
  • Light Snow
Temperatures Readings
Current -4°C / 25°F
Dewpoint -5°C / 23°F
Humidity 93%
Altimeter 29.84" Hg
Pressure 1010.52 hPa
Elevation 2385
METAR K04V 181335Z AUTO 00000KT 2 1/2SM -SN SCT009 BKN015 OVC021 M04/M05 A2984 RMK AO2 VIS 2V4
Observed Flight Rules
Jan-18 @ 13:35 UTC
(15 minutes ago)
IFR
Clouds
  • Scattered at 900' AGL
  • Broken at 1,500' AGL
  • Overcast at 2,100' AGL
Conditions
  • Light Snow
Temperature Dewpoint
-4°C / 25°F -5°C / 23°F
Humidity Altimeter Pressure
93% 29.84" Hg 1010.52 hPa